createdAt,value
2017-04-26T00:00:33.965Z,78.15
2017-04-26T00:01:35.380Z,79.72
2017-04-26T00:02:36.793Z,80.57
2017-04-26T00:03:38.208Z,81.43
2017-04-26T00:04:39.618Z,81.81
2017-04-26T00:05:41.037Z,81.71
2017-04-26T00:06:42.463Z,81.33
2017-04-26T00:07:43.873Z,81.24
2017-04-26T00:08:45.294Z,79.82
2017-04-26T00:09:46.708Z,79.25
2017-04-26T00:10:48.119Z,79.10
2017-04-26T00:11:49.529Z,79.25
2017-04-26T00:12:50.967Z,79.72
2017-04-26T00:13:52.354Z,78.96
2017-04-26T00:14:53.777Z,78.96
2017-04-26T00:15:55.189Z,78.67
2017-04-26T00:16:56.602Z,79.06
2017-04-26T00:17:58.019Z,79.15
2017-04-26T00:18:59.433Z,80.38
2017-04-26T00:20:00.844Z,80.29
2017-04-26T00:21:02.254Z,80.29
2017-04-26T00:22:03.673Z,80.86
2017-04-26T00:23:05.085Z,81.14
2017-04-26T00:24:06.505Z,80.95
2017-04-26T00:25:07.918Z,81.05
2017-04-26T00:26:09.343Z,81.43
2017-04-26T00:27:10.810Z,82.18
2017-04-26T00:28:12.242Z,82.52
2017-04-26T00:29:13.658Z,83.37
2017-04-26T00:30:15.071Z,83.28
2017-04-26T00:31:16.523Z,84.32
2017-04-26T00:32:17.948Z,84.32
2017-04-26T00:33:19.354Z,84.70
2017-04-26T00:34:20.777Z,84.80
2017-04-26T00:35:22.194Z,84.99
2017-04-26T00:36:23.609Z,84.23
2017-04-26T00:37:25.020Z,83.47
2017-04-26T00:38:26.431Z,84.23
2017-04-26T00:39:27.843Z,84.23
2017-04-26T00:40:29.258Z,83.00
2017-04-26T00:41:30.671Z,83.75
2017-04-26T00:42:32.082Z,83.85
2017-04-26T00:43:33.494Z,83.09
2017-04-26T00:44:34.918Z,82.47
2017-04-26T00:45:36.336Z,81.71
2017-04-26T00:46:37.746Z,81.81
2017-04-26T00:47:39.160Z,81.86
2017-04-26T00:48:40.576Z,81.95
2017-04-26T00:49:41.990Z,82.81
2017-04-26T00:50:43.399Z,82.81
2017-04-26T00:51:44.813Z,83.09
2017-04-26T00:52:46.239Z,82.81
2017-04-26T00:53:47.645Z,82.52
2017-04-26T00:54:49.061Z,82.05
2017-04-26T00:55:50.473Z,81.38
2017-04-26T00:56:51.884Z,81.48
2017-04-26T00:57:53.295Z,81.57
2017-04-26T00:58:54.720Z,82.24
2017-04-26T00:59:56.128Z,82.90
2017-04-26T01:00:57.540Z,83.47
2017-04-26T01:01:58.953Z,83.90
2017-04-26T01:03:00.378Z,84.75
2017-04-26T01:04:01.799Z,85.23
2017-04-26T01:05:03.202Z,85.08
2017-04-26T01:06:04.624Z,84.94
2017-04-26T01:07:06.149Z,85.08
2017-04-26T01:08:07.562Z,84.04
2017-04-26T01:09:08.974Z,83.75
2017-04-26T01:10:10.401Z,82.05
2017-04-26T01:11:11.807Z,80.76
2017-04-26T01:12:13.227Z,80.82
2017-04-26T01:13:14.637Z,80.63
2017-04-26T01:14:16.052Z,80.82
2017-04-26T01:15:17.467Z,81.29
2017-04-26T01:16:18.870Z,82.14
2017-04-26T01:17:20.293Z,80.91
2017-04-26T01:18:21.700Z,80.63
2017-04-26T01:19:23.113Z,79.58
2017-04-26T01:20:24.516Z,80.44
2017-04-26T01:21:25.936Z,80.53
2017-04-26T01:22:27.342Z,81.01
2017-04-26T01:23:28.749Z,80.25
2017-04-26T01:24:30.166Z,80.44
2017-04-26T01:25:31.586Z,79.49
2017-04-26T01:26:33.006Z,78.73
2017-04-26T01:27:34.415Z,78.92
2017-04-26T01:28:35.828Z,79.68
2017-04-26T01:29:37.245Z,79.11
2017-04-26T01:30:38.667Z,80.06
2017-04-26T01:31:40.079Z,80.63
2017-04-26T01:32:41.491Z,82.01
2017-04-26T01:33:42.916Z,83.14
2017-04-26T01:34:44.320Z,83.47
2017-04-26T01:35:45.727Z,83.62
2017-04-26T01:36:47.143Z,84.47
2017-04-26T01:37:48.553Z,84.37
2017-04-26T01:38:49.974Z,84.28
2017-04-26T01:39:51.381Z,84.28
2017-04-26T01:40:52.794Z,84.94
2017-04-26T01:41:54.273Z,84.28
2017-04-26T01:42:55.681Z,84.75
2017-04-26T01:43:57.093Z,85.13
2017-04-26T01:44:58.508Z,85.51
2017-04-26T01:45:59.922Z,85.89
2017-04-26T01:47:01.336Z,84.94
2017-04-26T01:48:02.750Z,84.66
2017-04-26T01:49:04.163Z,84.37
2017-04-26T01:50:05.572Z,84.28
2017-04-26T01:51:06.982Z,84.04
2017-04-26T01:52:08.393Z,83.09
2017-04-26T01:53:09.801Z,83.43
2017-04-26T01:54:11.215Z,83.14
2017-04-26T01:55:12.624Z,83.43
2017-04-26T01:56:14.032Z,83.81
2017-04-26T01:57:15.440Z,84.85
2017-04-26T01:58:16.877Z,84.66
2017-04-26T01:59:18.268Z,84.28
2017-04-26T02:00:19.677Z,84.19
2017-04-26T02:01:21.094Z,84.66
2017-04-26T02:02:22.505Z,85.42
2017-04-26T02:03:23.910Z,85.99
2017-04-26T02:04:25.322Z,85.80
2017-04-26T02:05:26.737Z,85.42
2017-04-26T02:06:28.145Z,85.13
2017-04-26T02:07:29.557Z,85.42
2017-04-26T02:08:30.963Z,84.85
2017-04-26T02:09:32.377Z,85.13
2017-04-26T02:10:33.788Z,84.19
2017-04-26T02:11:35.197Z,84.56
2017-04-26T02:12:36.603Z,85.13
2017-04-26T02:13:38.011Z,84.94
2017-04-26T02:14:39.429Z,85.80
2017-04-26T02:15:40.847Z,86.36
2017-04-26T02:16:42.257Z,85.61
2017-04-26T02:17:43.671Z,85.42
2017-04-26T02:18:45.078Z,85.32
2017-04-26T02:19:46.489Z,84.94
2017-04-26T02:20:47.903Z,84.94
2017-04-26T02:21:49.313Z,85.70
2017-04-26T02:22:50.727Z,85.32
2017-04-26T02:23:52.142Z,84.94
2017-04-26T02:24:53.550Z,84.66
2017-04-26T02:25:54.970Z,84.37
2017-04-26T02:26:56.377Z,85.42
2017-04-26T02:27:57.800Z,85.61
2017-04-26T02:28:59.217Z,85.99
2017-04-26T02:30:00.631Z,85.51
2017-04-26T02:31:02.046Z,85.13
2017-04-26T02:32:03.459Z,84.85
2017-04-26T02:33:04.878Z,85.32
2017-04-26T02:34:06.285Z,85.13
2017-04-26T02:35:07.700Z,85.13
2017-04-26T02:36:09.117Z,84.85
2017-04-26T02:37:10.529Z,84.94
2017-04-26T02:38:11.935Z,84.28
2017-04-26T02:39:13.349Z,83.62
2017-04-26T02:40:14.761Z,83.33
2017-04-26T02:41:16.173Z,83.62
2017-04-26T02:42:17.585Z,83.33
2017-04-26T02:43:18.996Z,83.05
2017-04-26T02:44:20.444Z,83.33
2017-04-26T02:45:21.849Z,84.00
2017-04-26T02:46:23.264Z,84.28
2017-04-26T02:47:24.683Z,84.47
2017-04-26T02:48:26.097Z,84.75
2017-04-26T02:49:27.520Z,85.13
2017-04-26T02:50:28.931Z,84.47
2017-04-26T02:51:30.343Z,83.43
2017-04-26T02:52:31.750Z,82.86
2017-04-26T02:53:33.167Z,82.76
2017-04-26T02:54:34.583Z,83.14
2017-04-26T02:55:35.990Z,83.43
2017-04-26T02:56:37.403Z,84.19
2017-04-26T02:57:38.815Z,84.47
2017-04-26T02:58:40.236Z,84.66
2017-04-26T02:59:41.642Z,84.85
2017-04-26T03:00:43.058Z,84.75
2017-04-26T03:01:45.240Z,84.94
2017-04-26T03:02:46.649Z,84.28
2017-04-26T03:03:48.061Z,82.95
2017-04-26T03:04:49.472Z,82.20
2017-04-26T03:05:50.883Z,81.86
2017-04-26T03:06:52.299Z,81.48
2017-04-26T03:07:53.704Z,80.96
2017-04-26T03:08:56.072Z,82.20
2017-04-26T03:09:57.482Z,82.86
2017-04-26T03:10:58.918Z,83.33
2017-04-26T03:12:00.338Z,83.62
2017-04-26T03:13:01.753Z,83.24
2017-04-26T03:14:03.166Z,82.57
2017-04-26T03:15:04.584Z,82.01
2017-04-26T03:16:05.996Z,82.01
2017-04-26T03:17:07.404Z,81.63
2017-04-26T03:18:08.825Z,81.63
2017-04-26T03:19:10.236Z,81.44
2017-04-26T03:20:11.662Z,81.34
2017-04-26T03:21:13.080Z,80.96
2017-04-26T03:22:14.496Z,81.44
2017-04-26T03:23:15.912Z,82.20
2017-04-26T03:24:17.331Z,81.92
2017-04-26T03:25:18.752Z,82.67
2017-04-26T03:26:20.163Z,82.76
2017-04-26T03:27:21.575Z,82.67
2017-04-26T03:28:22.999Z,81.92
2017-04-26T03:29:24.410Z,81.34
2017-04-26T03:30:25.826Z,81.53
2017-04-26T03:31:27.229Z,82.48
2017-04-26T03:32:28.639Z,83.05
2017-04-26T03:33:30.053Z,83.05
2017-04-26T03:34:31.464Z,83.33
2017-04-26T03:35:32.875Z,84.23
2017-04-26T03:36:34.295Z,84.28
2017-04-26T03:37:35.710Z,83.62
2017-04-26T03:38:37.113Z,83.24
2017-04-26T03:39:38.529Z,83.86
2017-04-26T03:40:39.937Z,84.28
2017-04-26T03:41:41.352Z,84.61
2017-04-26T03:42:42.758Z,84.52
2017-04-26T03:43:44.178Z,85.28
2017-04-26T03:44:45.590Z,84.61
2017-04-26T03:45:47.002Z,85.47
2017-04-26T03:46:48.429Z,85.09
2017-04-26T03:47:49.837Z,84.52
2017-04-26T03:48:51.247Z,85.57
2017-04-26T03:49:52.652Z,85.38
2017-04-26T03:50:54.066Z,86.22
2017-04-26T03:51:55.482Z,86.70
2017-04-26T03:52:56.896Z,86.22
2017-04-26T03:53:58.309Z,85.66
2017-04-26T03:54:59.723Z,84.90
2017-04-26T03:56:01.130Z,83.81
2017-04-26T03:57:02.541Z,83.43
2017-04-26T03:58:03.958Z,82.57
2017-04-26T03:59:05.365Z,82.48
2017-04-26T04:00:06.777Z,82.86
2017-04-26T04:01:08.184Z,82.86
2017-04-26T04:02:09.596Z,82.91
2017-04-26T04:03:11.021Z,82.91
2017-04-26T04:04:12.428Z,83.39
2017-04-26T04:05:13.834Z,84.33
2017-04-26T04:06:15.243Z,84.14
2017-04-26T04:07:16.655Z,83.62
2017-04-26T04:08:18.067Z,84.23
2017-04-26T04:09:19.473Z,84.23
2017-04-26T04:10:20.882Z,83.86
2017-04-26T04:11:22.289Z,85.09
2017-04-26T04:12:23.699Z,85.66
2017-04-26T04:13:25.115Z,85.00
2017-04-26T04:14:26.566Z,85.09
2017-04-26T04:15:27.990Z,85.66
2017-04-26T04:16:29.405Z,84.90
2017-04-26T04:17:30.829Z,84.28
2017-04-26T04:18:32.238Z,83.62
2017-04-26T04:19:33.650Z,83.33
2017-04-26T04:20:35.055Z,83.05
2017-04-26T04:21:36.462Z,82.29
2017-04-26T04:22:37.888Z,82.39
2017-04-26T04:23:39.294Z,82.01
2017-04-26T04:24:40.708Z,82.39
2017-04-26T04:25:42.124Z,82.20
2017-04-26T04:26:43.535Z,82.95
2017-04-26T04:27:44.947Z,83.52
2017-04-26T04:28:46.361Z,83.52
2017-04-26T04:29:47.770Z,84.23
2017-04-26T04:30:49.186Z,84.42
2017-04-26T04:31:50.603Z,85.28
2017-04-26T04:32:52.024Z,85.19
2017-04-26T04:33:53.440Z,86.51
2017-04-26T04:34:54.852Z,87.08
2017-04-26T04:35:56.272Z,86.70
2017-04-26T04:36:57.697Z,86.22
2017-04-26T04:37:59.122Z,86.04
2017-04-26T04:39:00.536Z,86.51
2017-04-26T04:40:01.957Z,86.41
2017-04-26T04:41:03.372Z,86.89
2017-04-26T04:42:04.782Z,86.89
2017-04-26T04:43:06.199Z,86.98
2017-04-26T04:44:07.613Z,86.51
2017-04-26T04:45:09.031Z,86.41
2017-04-26T04:46:10.447Z,86.13
2017-04-26T04:47:11.870Z,85.19
2017-04-26T04:48:13.284Z,84.90
2017-04-26T04:49:14.712Z,85.00
2017-04-26T04:50:16.130Z,84.28
2017-04-26T04:51:17.544Z,84.00
2017-04-26T04:52:18.968Z,84.09
2017-04-26T04:53:20.385Z,83.14
2017-04-26T04:54:21.799Z,83.14
2017-04-26T04:55:23.216Z,83.71
2017-04-26T04:56:24.626Z,83.90
2017-04-26T04:57:26.037Z,83.14
2017-04-26T04:58:27.454Z,83.52
2017-04-26T04:59:28.870Z,84.28
2017-04-26T05:00:30.293Z,84.00
2017-04-26T05:01:31.711Z,83.43
2017-04-26T05:02:33.134Z,83.71
2017-04-26T05:03:34.561Z,85.13
2017-04-26T05:04:35.979Z,84.85
2017-04-26T05:05:37.395Z,83.90
2017-04-26T05:06:38.821Z,84.37
2017-04-26T05:07:40.235Z,84.85
2017-04-26T05:08:41.657Z,85.80
2017-04-26T05:09:43.081Z,86.08
2017-04-26T05:10:44.493Z,87.02
2017-04-26T05:11:45.906Z,87.21
2017-04-26T05:12:47.323Z,86.93
2017-04-26T05:13:48.736Z,86.27
2017-04-26T05:14:50.156Z,86.36
2017-04-26T05:15:51.567Z,86.46
2017-04-26T05:16:52.991Z,86.36
2017-04-26T05:17:54.407Z,87.12
2017-04-26T05:18:55.821Z,86.65
2017-04-26T05:19:57.236Z,86.36
2017-04-26T05:20:58.649Z,86.27
2017-04-26T05:22:00.067Z,86.27
2017-04-26T05:23:01.490Z,85.46
2017-04-26T05:24:02.903Z,84.51
2017-04-26T05:25:04.320Z,83.94
2017-04-26T05:26:05.734Z,83.56
2017-04-26T05:27:07.152Z,84.13
2017-04-26T05:28:08.573Z,85.08
2017-04-26T05:29:09.994Z,84.42
2017-04-26T05:30:11.403Z,85.74
2017-04-26T05:31:12.850Z,86.22
2017-04-26T05:32:14.270Z,85.74
2017-04-26T05:33:15.681Z,85.55
2017-04-26T05:34:17.104Z,85.65
2017-04-26T05:35:18.525Z,85.74
2017-04-26T05:36:19.933Z,85.36
2017-04-26T05:37:21.357Z,85.46
2017-04-26T05:38:22.769Z,84.99
2017-04-26T05:39:24.190Z,85.46
2017-04-26T05:40:25.603Z,85.36
2017-04-26T05:41:27.012Z,86.03
2017-04-26T05:42:28.427Z,85.36
2017-04-26T05:43:29.845Z,85.46
2017-04-26T05:44:31.266Z,85.65
2017-04-26T05:45:32.678Z,85.41
2017-04-26T05:46:34.103Z,84.89
2017-04-26T05:47:35.517Z,84.51
2017-04-26T05:48:36.937Z,84.51
2017-04-26T05:49:38.351Z,84.89
2017-04-26T05:50:39.767Z,83.89
2017-04-26T05:51:41.191Z,83.80
2017-04-26T05:52:42.601Z,83.98
2017-04-26T05:53:44.019Z,84.27
2017-04-26T05:54:45.431Z,84.27
2017-04-26T05:55:46.849Z,84.51
2017-04-26T05:56:48.264Z,84.27
2017-04-26T05:57:49.679Z,84.65
2017-04-26T05:58:51.091Z,84.55
2017-04-26T05:59:52.515Z,84.17
2017-04-26T06:00:53.933Z,83.51
2017-04-26T06:01:55.353Z,82.85
2017-04-26T06:02:56.781Z,82.04
2017-04-26T06:03:58.198Z,81.62
2017-04-26T06:04:59.617Z,81.47
2017-04-26T06:06:01.033Z,82.13
2017-04-26T06:07:02.455Z,81.75
2017-04-26T06:08:03.874Z,80.80
2017-04-26T06:09:05.289Z,81.13
2017-04-26T06:10:06.711Z,80.62
2017-04-26T06:11:08.239Z,80.99
2017-04-26T06:12:09.656Z,81.75
2017-04-26T06:13:11.078Z,80.84
2017-04-26T06:14:12.593Z,81.23
2017-04-26T06:15:14.975Z,79.71
2017-04-26T06:16:16.397Z,79.99
2017-04-26T06:17:17.822Z,79.23
2017-04-26T06:18:19.243Z,78.95
2017-04-26T06:19:20.656Z,78.28
2017-04-26T06:20:22.076Z,78.19
2017-04-26T06:21:23.495Z,78.95
2017-04-26T06:22:24.920Z,78.80
2017-04-26T06:23:26.339Z,77.84
2017-04-26T06:24:27.762Z,76.04
2017-04-26T06:25:29.177Z,75.85
2017-04-26T06:26:30.597Z,74.71
2017-04-26T06:27:32.009Z,73.76
2017-04-26T06:28:33.423Z,74.33
2017-04-26T06:29:34.850Z,73.76
2017-04-26T06:30:36.268Z,73.86
2017-04-26T06:31:37.688Z,73.86
2017-04-26T06:32:39.111Z,73.86
2017-04-26T06:33:40.520Z,72.91
2017-04-26T06:34:41.941Z,72.53
2017-04-26T06:35:43.361Z,71.39
2017-04-26T06:36:44.776Z,71.04
2017-04-26T06:37:46.197Z,71.04
2017-04-26T06:38:47.622Z,71.43
2017-04-26T06:39:49.047Z,71.23
2017-04-26T06:40:50.469Z,72.47
2017-04-26T06:41:51.884Z,72.75
2017-04-26T06:42:53.297Z,72.85
2017-04-26T06:43:54.723Z,72.47
2017-04-26T06:44:56.147Z,71.43
2017-04-26T06:45:57.567Z,71.52
2017-04-26T06:46:58.984Z,73.04
2017-04-26T06:48:00.412Z,70.48
2017-04-26T06:49:01.828Z,70.29
2017-04-26T06:50:03.250Z,71.04
2017-04-26T06:51:04.668Z,71.27
2017-04-26T06:52:06.086Z,72.60
2017-04-26T06:53:07.533Z,72.38
2017-04-26T06:54:08.955Z,69.43
2017-04-26T06:55:10.359Z,69.05
2017-04-26T06:56:11.783Z,70.29
2017-04-26T06:57:13.198Z,69.24
2017-04-26T06:58:14.682Z,68.23
2017-04-26T06:59:16.109Z,68.58
2017-04-26T07:00:17.524Z,68.77
2017-04-26T07:01:18.953Z,69.46
2017-04-26T07:02:20.374Z,70.70
2017-04-26T07:03:21.798Z,70.04
2017-04-26T07:04:23.217Z,70.42
2017-04-26T07:05:24.637Z,68.80
2017-04-26T07:06:26.060Z,69.27
2017-04-26T07:07:27.478Z,68.80
2017-04-26T07:08:28.900Z,69.18
2017-04-26T07:09:30.329Z,69.09
2017-04-26T07:10:31.754Z,69.18
2017-04-26T07:11:33.183Z,68.84
2017-04-26T07:12:34.608Z,68.55
2017-04-26T07:13:36.031Z,68.33
2017-04-26T07:14:37.450Z,67.98
2017-04-26T07:15:38.870Z,68.17
2017-04-26T07:16:40.296Z,68.07
2017-04-26T07:17:41.721Z,68.74
2017-04-26T07:18:43.142Z,68.84
2017-04-26T07:19:44.561Z,66.17
2017-04-26T07:20:45.979Z,67.88
2017-04-26T07:21:47.409Z,69.02
2017-04-26T07:22:48.835Z,68.93
2017-04-26T07:23:50.251Z,68.93
2017-04-26T07:24:51.677Z,69.21
2017-04-26T07:25:53.101Z,69.02
2017-04-26T07:26:54.524Z,69.69
2017-04-26T07:27:55.946Z,69.60
2017-04-26T07:28:57.371Z,68.84
2017-04-26T07:29:58.805Z,67.92
2017-04-26T07:31:00.230Z,67.07
2017-04-26T07:32:01.650Z,66.78
2017-04-26T07:33:03.078Z,66.36
2017-04-26T07:34:04.505Z,66.20
2017-04-26T07:35:05.927Z,66.68
2017-04-26T07:36:07.345Z,66.49
2017-04-26T07:37:08.772Z,67.16
2017-04-26T07:38:10.201Z,67.16
2017-04-26T07:39:11.617Z,68.43
2017-04-26T07:40:13.038Z,66.81
2017-04-26T07:41:14.466Z,65.83
2017-04-26T07:42:15.890Z,65.25
2017-04-26T07:43:17.309Z,65.54
2017-04-26T07:44:18.738Z,65.95
2017-04-26T07:45:20.162Z,66.05
2017-04-26T07:46:21.595Z,66.72
2017-04-26T07:47:23.022Z,66.62
2017-04-26T07:48:24.438Z,64.97
2017-04-26T07:49:25.872Z,64.97
2017-04-26T07:50:27.294Z,66.39
2017-04-26T07:51:28.714Z,64.59
2017-04-26T07:52:30.143Z,66.02
2017-04-26T07:53:31.564Z,66.39
2017-04-26T07:54:32.988Z,67.07
2017-04-26T07:55:34.411Z,67.19
2017-04-26T07:56:35.833Z,66.91
2017-04-26T07:57:37.255Z,67.00
2017-04-26T07:58:38.680Z,65.38
2017-04-26T07:59:40.100Z,64.90
2017-04-26T08:00:41.525Z,64.97
2017-04-26T08:01:42.943Z,63.83
2017-04-26T08:02:44.366Z,64.50
2017-04-26T08:03:45.799Z,65.45
2017-04-26T08:04:47.222Z,64.81
2017-04-26T08:05:48.651Z,65.19
2017-04-26T08:06:50.089Z,64.90
2017-04-26T08:07:51.488Z,64.24
2017-04-26T08:08:52.912Z,64.15
2017-04-26T08:09:54.336Z,65.48
2017-04-26T08:10:55.757Z,63.67
2017-04-26T08:11:57.177Z,63.48
2017-04-26T08:12:58.604Z,63.48
2017-04-26T08:14:00.026Z,62.97
2017-04-26T08:15:01.451Z,63.10
2017-04-26T08:16:02.873Z,63.01
2017-04-26T08:17:04.297Z,65.38
2017-04-26T08:18:05.712Z,63.57
2017-04-26T08:19:07.141Z,63.57
2017-04-26T08:20:08.562Z,62.91
2017-04-26T08:21:09.987Z,62.53
2017-04-26T08:22:11.411Z,62.53
2017-04-26T08:23:12.830Z,63.42
2017-04-26T08:24:14.252Z,62.08
2017-04-26T08:25:15.687Z,61.96
2017-04-26T08:26:17.099Z,61.29
2017-04-26T08:27:18.526Z,60.91
2017-04-26T08:28:19.951Z,60.05
2017-04-26T08:29:21.370Z,59.67
2017-04-26T08:30:22.800Z,62.15
2017-04-26T08:31:24.220Z,61.48
2017-04-26T08:32:25.641Z,61.58
2017-04-26T08:33:27.069Z,61.96
2017-04-26T08:34:28.486Z,63.39
2017-04-26T08:35:29.909Z,62.91
2017-04-26T08:36:31.331Z,61.29
2017-04-26T08:37:32.756Z,62.43
2017-04-26T08:38:34.183Z,62.72
2017-04-26T08:39:35.607Z,62.62
2017-04-26T08:40:37.031Z,63.39
2017-04-26T08:41:38.466Z,62.91
2017-04-26T08:42:39.890Z,62.62
2017-04-26T08:43:41.312Z,61.13
2017-04-26T08:44:42.736Z,62.91
2017-04-26T08:45:44.159Z,63.60
2017-04-26T08:46:45.582Z,64.65
2017-04-26T08:47:47.012Z,64.28
2017-04-26T08:48:48.449Z,62.53
2017-04-26T08:49:49.875Z,63.57
2017-04-26T08:50:51.301Z,64.62
2017-04-26T08:51:52.723Z,62.62
2017-04-26T08:52:54.148Z,64.75
2017-04-26T08:53:55.572Z,63.23
2017-04-26T08:54:56.996Z,63.04
2017-04-26T08:55:58.416Z,63.20
2017-04-26T08:56:59.837Z,63.57
2017-04-26T08:58:01.260Z,63.01
2017-04-26T08:59:02.688Z,64.43
2017-04-26T09:00:04.113Z,64.15
2017-04-26T09:01:05.537Z,65.10
2017-04-26T09:02:06.964Z,65.54
2017-04-26T09:03:08.379Z,67.16
2017-04-26T09:04:09.801Z,67.82
2017-04-26T09:05:11.229Z,67.22
2017-04-26T09:06:12.646Z,68.93
2017-04-26T09:07:14.080Z,69.60
2017-04-26T09:08:15.504Z,68.49
2017-04-26T09:09:16.929Z,69.82
2017-04-26T09:10:18.359Z,68.01
2017-04-26T09:11:19.774Z,68.40
2017-04-26T09:12:21.213Z,67.92
2017-04-26T09:13:22.638Z,68.01
2017-04-26T09:14:24.058Z,67.44
2017-04-26T09:15:25.487Z,67.67
2017-04-26T09:16:26.914Z,66.62
2017-04-26T09:17:28.340Z,64.81
2017-04-26T09:18:29.759Z,63.86
2017-04-26T09:19:31.184Z,63.20
2017-04-26T09:20:32.603Z,64.43
2017-04-26T09:21:34.027Z,63.96
2017-04-26T09:22:35.449Z,63.76
2017-04-26T09:23:36.886Z,63.10
2017-04-26T09:24:38.304Z,62.72
2017-04-26T09:25:39.723Z,63.51
2017-04-26T09:26:41.145Z,63.23
2017-04-26T09:27:42.571Z,64.08
2017-04-26T09:28:43.997Z,64.08
2017-04-26T09:29:45.422Z,63.99
2017-04-26T09:30:46.845Z,64.43
2017-04-26T09:31:48.278Z,64.18
2017-04-26T09:32:49.699Z,64.56
2017-04-26T09:33:51.129Z,62.91
2017-04-26T09:34:52.638Z,64.08
2017-04-26T09:35:54.067Z,64.84
2017-04-26T09:36:55.484Z,65.03
2017-04-26T09:37:56.917Z,64.62
2017-04-26T09:38:58.338Z,63.29
2017-04-26T09:39:59.763Z,63.32
2017-04-26T09:41:01.190Z,61.77
2017-04-26T09:42:02.624Z,62.08
2017-04-26T09:43:04.039Z,62.65
2017-04-26T09:44:05.468Z,62.78
2017-04-26T09:45:06.891Z,61.42
2017-04-26T09:46:08.314Z,60.18
2017-04-26T09:47:09.742Z,58.40
2017-04-26T09:48:11.160Z,59.54
2017-04-26T09:49:12.582Z,56.49
2017-04-26T09:50:14.014Z,57.26
2017-04-26T09:51:15.439Z,55.51
2017-04-26T09:52:16.860Z,56.09
2017-04-26T09:53:18.283Z,56.97
2017-04-26T09:54:19.708Z,58.21
2017-04-26T09:55:21.143Z,57.35
2017-04-26T09:56:22.573Z,55.83
2017-04-26T09:57:24.002Z,55.54
2017-04-26T09:58:25.432Z,52.11
2017-04-26T09:59:26.867Z,53.25
2017-04-26T10:00:28.290Z,53.83
2017-04-26T10:01:29.714Z,53.70
2017-04-26T10:02:31.143Z,53.73
2017-04-26T10:03:32.568Z,56.56
2017-04-26T10:04:33.996Z,55.04
2017-04-26T10:05:35.424Z,54.49
2017-04-26T10:06:36.854Z,55.90
2017-04-26T10:07:38.281Z,55.61
2017-04-26T10:08:39.702Z,55.70
2017-04-26T10:09:41.129Z,56.09
2017-04-26T10:10:42.553Z,57.99
2017-04-26T10:11:43.985Z,56.18
2017-04-26T10:12:45.403Z,55.61
2017-04-26T10:13:46.826Z,56.65
2017-04-26T10:15:03.495Z,59.13
2017-04-26T10:15:49.631Z,58.25
2017-04-26T10:16:51.063Z,59.13
2017-04-26T10:17:52.485Z,58.18
2017-04-26T10:18:53.898Z,59.13
2017-04-26T10:19:55.323Z,59.70
2017-04-26T10:20:56.746Z,58.75
2017-04-26T10:21:58.171Z,58.56
2017-04-26T10:22:59.619Z,58.28
2017-04-26T10:24:01.046Z,57.54
2017-04-26T10:25:02.471Z,56.49
2017-04-26T10:26:03.900Z,56.97
2017-04-26T10:27:05.328Z,55.54
2017-04-26T10:28:06.759Z,58.37
2017-04-26T10:29:08.182Z,56.75
2017-04-26T10:30:09.613Z,56.75
2017-04-26T10:31:11.040Z,56.46
2017-04-26T10:32:12.472Z,57.60
2017-04-26T10:33:13.907Z,55.99
2017-04-26T10:34:15.322Z,55.70
2017-04-26T10:35:16.763Z,57.04
2017-04-26T10:36:18.200Z,55.99
2017-04-26T10:37:19.627Z,56.27
2017-04-26T10:38:21.048Z,55.99
2017-04-26T10:39:22.470Z,57.77
2017-04-26T10:40:23.894Z,56.63
2017-04-26T10:41:25.314Z,56.27
2017-04-26T10:42:26.735Z,56.65
2017-04-26T10:43:28.172Z,57.23
2017-04-26T10:44:29.605Z,56.56
2017-04-26T10:45:31.031Z,58.18
2017-04-26T10:46:32.456Z,56.85
2017-04-26T10:47:33.874Z,56.87
2017-04-26T10:48:35.303Z,55.99
2017-04-26T10:49:36.734Z,56.21
2017-04-26T10:50:38.159Z,55.63
2017-04-26T10:51:39.584Z,58.40
2017-04-26T10:52:41.011Z,57.45
2017-04-26T10:53:42.454Z,56.87
2017-04-26T10:54:43.876Z,57.76
2017-04-26T10:55:45.307Z,57.64
2017-04-26T10:56:46.741Z,57.38
2017-04-26T10:57:48.166Z,57.26
2017-04-26T10:58:49.592Z,59.16
2017-04-26T10:59:51.024Z,58.59
2017-04-26T11:00:52.455Z,59.83
2017-04-26T11:01:53.877Z,58.28
2017-04-26T11:02:55.302Z,60.34
2017-04-26T11:03:56.729Z,62.43
2017-04-26T11:04:58.157Z,62.91
2017-04-26T11:05:59.572Z,61.86
2017-04-26T11:07:00.997Z,62.81
2017-04-26T11:08:02.424Z,62.91
2017-04-26T11:09:03.849Z,61.77
2017-04-26T11:10:05.279Z,62.53
2017-04-26T11:11:06.704Z,62.43
2017-04-26T11:12:08.130Z,62.56
2017-04-26T11:13:09.561Z,60.85
2017-04-26T11:14:10.985Z,62.56
2017-04-26T11:15:12.413Z,61.42
2017-04-26T11:16:13.835Z,61.99
2017-04-26T11:17:15.261Z,61.42
2017-04-26T11:18:16.690Z,61.58
2017-04-26T11:19:18.111Z,61.99
2017-04-26T11:20:19.546Z,62.75
2017-04-26T11:21:20.972Z,62.75
2017-04-26T11:22:22.401Z,61.80
2017-04-26T11:23:23.826Z,60.85
2017-04-26T11:24:25.244Z,63.13
2017-04-26T11:25:26.685Z,62.18
2017-04-26T11:26:28.113Z,61.70
2017-04-26T11:27:29.538Z,62.08
2017-04-26T11:28:30.968Z,60.08
2017-04-26T11:29:32.505Z,60.46
2017-04-26T11:30:33.930Z,59.13
2017-04-26T11:31:35.355Z,59.03
2017-04-26T11:32:36.783Z,59.06
2017-04-26T11:33:38.238Z,58.40
2017-04-26T11:34:39.660Z,55.57
2017-04-26T11:35:41.089Z,55.95
2017-04-26T11:36:42.509Z,55.76
2017-04-26T11:37:43.941Z,56.71
2017-04-26T11:38:45.368Z,57.41
2017-04-26T11:39:46.791Z,56.26
2017-04-26T11:40:48.327Z,55.57
2017-04-26T11:41:49.750Z,56.65
2017-04-26T11:42:51.183Z,56.38
2017-04-26T11:43:52.702Z,56.01
2017-04-26T11:44:54.124Z,55.79
2017-04-26T11:45:55.551Z,53.24
2017-04-26T11:46:56.978Z,54.32
2017-04-26T11:47:58.401Z,51.43
2017-04-26T11:48:59.816Z,53.81
2017-04-26T11:50:01.241Z,49.97
2017-04-26T11:51:02.727Z,50.45
2017-04-26T11:52:04.221Z,50.59
2017-04-26T11:53:05.644Z,52.03
2017-04-26T11:54:07.065Z,50.78
2017-04-26T11:55:08.506Z,48.39
2017-04-26T11:56:09.921Z,50.02
2017-04-26T11:57:11.348Z,47.82
2017-04-26T11:58:12.774Z,49.73
2017-04-26T11:59:14.204Z,49.57
2017-04-26T12:00:15.630Z,49.07
2017-04-26T12:01:17.052Z,48.78
2017-04-26T12:02:18.480Z,49.83
2017-04-26T12:03:19.901Z,53.96
2017-04-26T12:04:21.327Z,51.19
2017-04-26T12:05:22.749Z,49.49
2017-04-26T12:06:24.185Z,47.39
2017-04-26T12:07:25.614Z,46.63
2017-04-26T12:08:27.042Z,43.74
2017-04-26T12:09:28.470Z,43.36
2017-04-26T12:10:29.894Z,44.02
2017-04-26T12:11:31.320Z,43.66
2017-04-26T12:12:32.756Z,42.60
2017-04-26T12:13:34.178Z,42.61
2017-04-26T12:14:35.606Z,43.66
2017-04-26T12:15:37.031Z,43.38
2017-04-26T12:16:38.459Z,44.51
2017-04-26T12:17:39.884Z,46.25
2017-04-26T12:18:41.313Z,44.62
2017-04-26T12:19:42.763Z,44.15
2017-04-26T12:20:44.186Z,42.04
2017-04-26T12:21:45.621Z,43.09
2017-04-26T12:22:47.045Z,42.50
2017-04-26T12:23:48.469Z,41.05
2017-04-26T12:24:49.901Z,41.81
2017-04-26T12:25:51.324Z,42.60
2017-04-26T12:26:52.751Z,41.06
2017-04-26T12:27:54.174Z,41.06
2017-04-26T12:28:55.612Z,41.18
2017-04-26T12:29:57.029Z,41.47
2017-04-26T12:30:58.456Z,40.03
2017-04-26T12:31:59.909Z,40.03
2017-04-26T12:33:01.313Z,40.42
2017-04-26T12:34:02.743Z,40.06
2017-04-26T12:35:04.176Z,42.73
2017-04-26T12:36:05.596Z,42.33
2017-04-26T12:37:07.026Z,39.94
2017-04-26T12:38:08.457Z,39.56
2017-04-26T12:39:09.885Z,39.84
2017-04-26T12:40:11.316Z,39.08
2017-04-26T12:41:12.745Z,42.43
2017-04-26T12:42:14.172Z,41.85
2017-04-26T12:43:15.596Z,41.28
2017-04-26T12:44:17.034Z,40.99
2017-04-26T12:45:18.455Z,43.93
2017-04-26T12:46:19.890Z,41.26
2017-04-26T12:47:21.318Z,40.37
2017-04-26T12:48:22.748Z,42.69
2017-04-26T12:49:24.178Z,41.06
2017-04-26T12:50:25.600Z,39.92
2017-04-26T12:51:27.039Z,41.06
2017-04-26T12:52:28.475Z,39.25
2017-04-26T12:53:29.898Z,38.20
2017-04-26T12:54:31.326Z,38.78
2017-04-26T12:55:32.857Z,38.89
2017-04-26T12:56:34.273Z,38.32
2017-04-26T12:57:35.701Z,40.49
2017-04-26T12:58:37.121Z,38.85
2017-04-26T12:59:38.550Z,38.37
2017-04-26T13:00:39.977Z,38.56
2017-04-26T13:01:41.413Z,40.37
2017-04-26T13:02:42.925Z,41.35
2017-04-26T13:03:44.400Z,39.32
2017-04-26T13:04:45.823Z,38.96
2017-04-26T13:05:47.252Z,40.03
2017-04-26T13:06:48.692Z,38.32
2017-04-26T13:07:50.113Z,39.00
2017-04-26T13:08:51.534Z,38.62
2017-04-26T13:09:52.986Z,43.17
2017-04-26T13:10:54.481Z,46.37